sensor_id;sensor_type;location;lat;lon;timestamp;temperature;humidity
25342;DHT22;13298;48.792;9.154;2022-12-26T00:01:04;9.00;99.90
25342;DHT22;13298;48.792;9.154;2022-12-26T00:03:34;9.00;99.90
25342;DHT22;13298;48.792;9.154;2022-12-26T00:06:00;9.10;99.90
25342;DHT22;13298;48.792;9.154;2022-12-26T00:08:26;9.10;99.90
25342;DHT22;13298;48.792;9.154;2022-12-26T00:10:51;9.30;99.90
25342;DHT22;13298;48.792;9.154;2022-12-26T00:13:17;9.30;99.90
25342;DHT22;13298;48.792;9.154;2022-12-26T00:15:43;9.40;99.90
25342;DHT22;13298;48.792;9.154;2022-12-26T00:18:08;9.40;99.90
25342;DHT22;13298;48.792;9.154;2022-12-26T00:20:34;9.40;99.90
25342;DHT22;13298;48.792;9.154;2022-12-26T00:23:00;9.40;99.90
25342;DHT22;13298;48.792;9.154;2022-12-26T00:25:26;9.40;99.90
25342;DHT22;13298;48.792;9.154;2022-12-26T00:27:51;9.40;99.90
25342;DHT22;13298;48.792;9.154;2022-12-26T00:30:17;9.40;99.90
25342;DHT22;13298;48.792;9.154;2022-12-26T00:32:42;9.40;99.90
25342;DHT22;13298;48.792;9.154;2022-12-26T00:35:08;9.50;99.90
25342;DHT22;13298;48.792;9.154;2022-12-26T00:37:34;9.50;99.90
25342;DHT22;13298;48.792;9.154;2022-12-26T00:39:59;9.50;99.90
25342;DHT22;13298;48.792;9.154;2022-12-26T00:42:25;9.40;99.90
25342;DHT22;13298;48.792;9.154;2022-12-26T00:44:51;9.40;99.90
25342;DHT22;13298;48.792;9.154;2022-12-26T00:47:16;9.30;99.90
25342;DHT22;13298;48.792;9.154;2022-12-26T00:49:42;9.30;99.90
25342;DHT22;13298;48.792;9.154;2022-12-26T00:52:07;9.20;99.90
25342;DHT22;13298;48.792;9.154;2022-12-26T00:54:33;9.20;99.90
25342;DHT22;13298;48.792;9.154;2022-12-26T00:56:59;9.10;99.90
25342;DHT22;13298;48.792;9.154;2022-12-26T00:59:24;9.10;99.90
25342;DHT22;13298;48.792;9.154;2022-12-26T01:01:50;9.00;99.90
25342;DHT22;13298;48.792;9.154;2022-12-26T01:04:15;9.00;99.90
25342;DHT22;13298;48.792;9.154;2022-12-26T01:06:41;9.00;99.90
25342;DHT22;13298;48.792;9.154;2022-12-26T01:09:07;9.00;99.90
25342;DHT22;13298;48.792;9.154;2022-12-26T01:11:36;8.90;99.90
25342;DHT22;13298;48.792;9.154;2022-12-26T01:14:05;8.90;99.90
25342;DHT22;13298;48.792;9.154;2022-12-26T01:16:32;8.80;99.90
25342;DHT22;13298;48.792;9.154;2022-12-26T01:18:57;8.80;99.90
25342;DHT22;13298;48.792;9.154;2022-12-26T01:21:23;8.70;99.90
25342;DHT22;13298;48.792;9.154;2022-12-26T01:23:49;8.70;99.90
25342;DHT22;13298;48.792;9.154;2022-12-26T01:26:14;8.70;99.90
25342;DHT22;13298;48.792;9.154;2022-12-26T01:28:40;8.70;99.90
25342;DHT22;13298;48.792;9.154;2022-12-26T01:31:05;8.70;99.90
25342;DHT22;13298;48.792;9.154;2022-12-26T01:33:31;8.70;99.90
25342;DHT22;13298;48.792;9.154;2022-12-26T01:35:57;8.70;99.90
25342;DHT22;13298;48.792;9.154;2022-12-26T01:38:23;8.70;99.90
25342;DHT22;13298;48.792;9.154;2022-12-26T01:40:49;8.70;99.90
25342;DHT22;13298;48.792;9.154;2022-12-26T01:43:54;8.70;99.90
25342;DHT22;13298;48.792;9.154;2022-12-26T01:46:35;8.70;99.90
25342;DHT22;13298;48.792;9.154;2022-12-26T01:49:05;8.70;99.90
25342;DHT22;13298;48.792;9.154;2022-12-26T01:51:34;8.70;99.90
25342;DHT22;13298;48.792;9.154;2022-12-26T01:54:01;8.70;99.90
25342;DHT22;13298;48.792;9.154;2022-12-26T01:56:30;8.70;99.90
25342;DHT22;13298;48.792;9.154;2022-12-26T01:59:02;8.70;99.90
25342;DHT22;13298;48.792;9.154;2022-12-26T02:01:31;8.70;99.90
25342;DHT22;13298;48.792;9.154;2022-12-26T02:03:58;8.80;99.90
25342;DHT22;13298;48.792;9.154;2022-12-26T02:06:43;8.80;99.90
25342;DHT22;13298;48.792;9.154;2022-12-26T02:09:09;8.90;99.90
25342;DHT22;13298;48.792;9.154;2022-12-26T02:11:39;8.90;99.90
25342;DHT22;13298;48.792;9.154;2022-12-26T02:14:10;8.90;99.90
25342;DHT22;13298;48.792;9.154;2022-12-26T02:16:36;8.90;99.90
25342;DHT22;13298;48.792;9.154;2022-12-26T02:19:03;8.90;99.90
25342;DHT22;13298;48.792;9.154;2022-12-26T02:26:48;8.90;99.90
25342;DHT22;13298;48.792;9.154;2022-12-26T02:29:24;8.80;99.90
25342;DHT22;13298;48.792;9.154;2022-12-26T02:37:21;8.80;99.90
25342;DHT22;13298;48.792;9.154;2022-12-26T02:39:57;8.90;99.90
25342;DHT22;13298;48.792;9.154;2022-12-26T02:45:25;9.00;99.90
25342;DHT22;13298;48.792;9.154;2022-12-26T02:48:19;9.10;99.90
25342;DHT22;13298;48.792;9.154;2022-12-26T02:57:03;9.30;99.90
25342;DHT22;13298;48.792;9.154;2022-12-26T02:59:56;9.30;99.90
25342;DHT22;13298;48.792;9.154;2022-12-26T03:03:04;9.30;99.90
25342;DHT22;13298;48.792;9.154;2022-12-26T03:05:56;9.40;99.90
25342;DHT22;13298;48.792;9.154;2022-12-26T03:08:45;9.50;99.90
25342;DHT22;13298;48.792;9.154;2022-12-26T03:11:34;9.60;99.90
25342;DHT22;13298;48.792;9.154;2022-12-26T03:14:25;9.50;99.90
25342;DHT22;13298;48.792;9.154;2022-12-26T03:16:55;9.50;99.90
25342;DHT22;13298;48.792;9.154;2022-12-26T03:19:41;9.50;99.90
25342;DHT22;13298;48.792;9.154;2022-12-26T03:22:24;9.40;99.90
25342;DHT22;13298;48.792;9.154;2022-12-26T03:24:55;9.40;99.90
25342;DHT22;13298;48.792;9.154;2022-12-26T03:27:39;9.30;99.90
25342;DHT22;13298;48.792;9.154;2022-12-26T03:30:05;9.20;99.90
25342;DHT22;13298;48.792;9.154;2022-12-26T03:32:49;9.20;99.90
25342;DHT22;13298;48.792;9.154;2022-12-26T03:35:17;9.20;99.90
25342;DHT22;13298;48.792;9.154;2022-12-26T03:43:43;9.10;99.90
25342;DHT22;13298;48.792;9.154;2022-12-26T03:49:28;9.00;99.90
25342;DHT22;13298;48.792;9.154;2022-12-26T03:55:18;9.00;99.90
25342;DHT22;13298;48.792;9.154;2022-12-26T03:58:30;9.00;99.90
25342;DHT22;13298;48.792;9.154;2022-12-26T04:01:18;9.10;99.90
25342;DHT22;13298;48.792;9.154;2022-12-26T04:04:04;9.10;99.90
25342;DHT22;13298;48.792;9.154;2022-12-26T04:06:52;9.20;99.90
25342;DHT22;13298;48.792;9.154;2022-12-26T04:09:41;9.30;99.90
25342;DHT22;13298;48.792;9.154;2022-12-26T04:12:28;9.30;99.90
25342;DHT22;13298;48.792;9.154;2022-12-26T04:15:47;9.40;99.90
25342;DHT22;13298;48.792;9.154;2022-12-26T04:18:49;9.50;99.90
25342;DHT22;13298;48.792;9.154;2022-12-26T04:22:12;9.50;99.90
25342;DHT22;13298;48.792;9.154;2022-12-26T04:27:57;9.70;99.90
25342;DHT22;13298;48.792;9.154;2022-12-26T04:30:42;9.80;99.90
25342;DHT22;13298;48.792;9.154;2022-12-26T04:33:34;9.80;99.90
25342;DHT22;13298;48.792;9.154;2022-12-26T04:36:28;9.80;99.90
25342;DHT22;13298;48.792;9.154;2022-12-26T04:39:16;9.90;99.90
25342;DHT22;13298;48.792;9.154;2022-12-26T04:42:02;9.90;99.90
25342;DHT22;13298;48.792;9.154;2022-12-26T04:44:46;10.00;99.90
25342;DHT22;13298;48.792;9.154;2022-12-26T04:47:14;10.20;99.90
25342;DHT22;13298;48.792;9.154;2022-12-26T04:49:40;10.20;99.90
25342;DHT22;13298;48.792;9.154;2022-12-26T04:52:28;10.20;99.90
25342;DHT22;13298;48.792;9.154;2022-12-26T04:55:14;10.20;99.90
25342;DHT22;13298;48.792;9.154;2022-12-26T04:57:39;10.20;99.90
25342;DHT22;13298;48.792;9.154;2022-12-26T05:00:05;10.20;99.90
25342;DHT22;13298;48.792;9.154;2022-12-26T05:02:31;10.10;99.90
25342;DHT22;13298;48.792;9.154;2022-12-26T05:05:15;10.10;99.90
25342;DHT22;13298;48.792;9.154;2022-12-26T05:07:59;10.10;99.90
25342;DHT22;13298;48.792;9.154;2022-12-26T05:10:44;10.10;99.90
25342;DHT22;13298;48.792;9.154;2022-12-26T05:13:09;10.10;99.90
25342;DHT22;13298;48.792;9.154;2022-12-26T05:15:35;10.10;99.90
25342;DHT22;13298;48.792;9.154;2022-12-26T05:18:20;10.00;99.90
25342;DHT22;13298;48.792;9.154;2022-12-26T05:21:06;9.90;99.90
25342;DHT22;13298;48.792;9.154;2022-12-26T05:23:53;9.90;99.90
25342;DHT22;13298;48.792;9.154;2022-12-26T05:26:38;9.90;99.90
25342;DHT22;13298;48.792;9.154;2022-12-26T05:29:22;9.80;99.90
25342;DHT22;13298;48.792;9.154;2022-12-26T05:31:49;9.80;99.90
25342;DHT22;13298;48.792;9.154;2022-12-26T05:34:15;9.80;99.90
25342;DHT22;13298;48.792;9.154;2022-12-26T05:39:12;9.70;99.90
25342;DHT22;13298;48.792;9.154;2022-12-26T05:41:38;9.70;99.90
25342;DHT22;13298;48.792;9.154;2022-12-26T05:44:04;9.80;99.90
25342;DHT22;13298;48.792;9.154;2022-12-26T05:46:31;9.90;99.90
25342;DHT22;13298;48.792;9.154;2022-12-26T05:48:56;10.00;99.90
25342;DHT22;13298;48.792;9.154;2022-12-26T05:51:22;10.10;99.90
25342;DHT22;13298;48.792;9.154;2022-12-26T05:53:47;10.20;99.90
25342;DHT22;13298;48.792;9.154;2022-12-26T05:56:14;10.20;99.90
25342;DHT22;13298;48.792;9.154;2022-12-26T05:58:41;10.30;99.90
25342;DHT22;13298;48.792;9.154;2022-12-26T06:01:10;10.30;99.90
25342;DHT22;13298;48.792;9.154;2022-12-26T06:03:39;10.30;99.90
25342;DHT22;13298;48.792;9.154;2022-12-26T06:06:07;10.30;99.90
25342;DHT22;13298;48.792;9.154;2022-12-26T06:08:33;10.30;99.90
25342;DHT22;13298;48.792;9.154;2022-12-26T06:11:01;10.30;99.90
25342;DHT22;13298;48.792;9.154;2022-12-26T06:13:28;10.40;99.90
25342;DHT22;13298;48.792;9.154;2022-12-26T06:15:53;10.50;99.90
25342;DHT22;13298;48.792;9.154;2022-12-26T06:18:19;10.50;99.90
25342;DHT22;13298;48.792;9.154;2022-12-26T06:20:45;10.50;99.90
25342;DHT22;13298;48.792;9.154;2022-12-26T06:23:10;10.50;99.90
25342;DHT22;13298;48.792;9.154;2022-12-26T06:25:36;10.50;99.90
25342;DHT22;13298;48.792;9.154;2022-12-26T06:28:01;10.40;99.90
25342;DHT22;13298;48.792;9.154;2022-12-26T06:30:27;10.40;99.90
25342;DHT22;13298;48.792;9.154;2022-12-26T06:32:53;10.40;99.90
25342;DHT22;13298;48.792;9.154;2022-12-26T06:35:18;10.40;99.90
25342;DHT22;13298;48.792;9.154;2022-12-26T06:37:44;10.40;99.90
25342;DHT22;13298;48.792;9.154;2022-12-26T06:40:09;10.40;99.90
25342;DHT22;13298;48.792;9.154;2022-12-26T06:42:35;10.30;99.90
25342;DHT22;13298;48.792;9.154;2022-12-26T06:45:01;10.30;99.90
25342;DHT22;13298;48.792;9.154;2022-12-26T06:47:27;10.40;99.90
25342;DHT22;13298;48.792;9.154;2022-12-26T06:49:53;10.30;99.90
25342;DHT22;13298;48.792;9.154;2022-12-26T06:52:18;10.40;99.90
25342;DHT22;13298;48.792;9.154;2022-12-26T06:54:44;10.40;99.90
25342;DHT22;13298;48.792;9.154;2022-12-26T06:57:10;10.30;99.90
25342;DHT22;13298;48.792;9.154;2022-12-26T06:59:35;10.30;99.90
25342;DHT22;13298;48.792;9.154;2022-12-26T07:02:01;10.40;99.90
25342;DHT22;13298;48.792;9.154;2022-12-26T07:04:27;10.40;99.90
25342;DHT22;13298;48.792;9.154;2022-12-26T07:06:52;10.50;99.90
25342;DHT22;13298;48.792;9.154;2022-12-26T07:09:18;10.50;99.90
25342;DHT22;13298;48.792;9.154;2022-12-26T07:11:45;10.60;99.90
25342;DHT22;13298;48.792;9.154;2022-12-26T07:14:12;10.60;99.90
25342;DHT22;13298;48.792;9.154;2022-12-26T07:16:39;10.60;99.90
25342;DHT22;13298;48.792;9.154;2022-12-26T07:19:06;10.60;99.90
25342;DHT22;13298;48.792;9.154;2022-12-26T07:21:32;10.60;99.90
25342;DHT22;13298;48.792;9.154;2022-12-26T07:23:57;10.50;99.90
25342;DHT22;13298;48.792;9.154;2022-12-26T07:26:23;10.50;99.90
25342;DHT22;13298;48.792;9.154;2022-12-26T07:28:52;10.50;99.90
25342;DHT22;13298;48.792;9.154;2022-12-26T07:31:19;10.50;99.90
25342;DHT22;13298;48.792;9.154;2022-12-26T07:33:48;10.60;99.90
25342;DHT22;13298;48.792;9.154;2022-12-26T07:36:15;10.60;99.90
25342;DHT22;13298;48.792;9.154;2022-12-26T07:38:41;10.60;99.90
25342;DHT22;13298;48.792;9.154;2022-12-26T07:41:06;10.50;99.90
25342;DHT22;13298;48.792;9.154;2022-12-26T07:43:50;10.50;99.90
25342;DHT22;13298;48.792;9.154;2022-12-26T07:46:16;10.50;99.90
25342;DHT22;13298;48.792;9.154;2022-12-26T07:48:42;10.50;99.90
25342;DHT22;13298;48.792;9.154;2022-12-26T07:51:07;10.50;99.90
25342;DHT22;13298;48.792;9.154;2022-12-26T07:53:33;10.60;99.90
25342;DHT22;13298;48.792;9.154;2022-12-26T07:55:59;10.60;99.90
25342;DHT22;13298;48.792;9.154;2022-12-26T07:58:24;10.60;99.90
25342;DHT22;13298;48.792;9.154;2022-12-26T08:00:50;10.60;99.90
25342;DHT22;13298;48.792;9.154;2022-12-26T08:03:16;10.60;99.90
25342;DHT22;13298;48.792;9.154;2022-12-26T08:05:45;10.60;99.90
25342;DHT22;13298;48.792;9.154;2022-12-26T08:08:12;10.50;99.90
25342;DHT22;13298;48.792;9.154;2022-12-26T08:10:37;10.50;99.90
25342;DHT22;13298;48.792;9.154;2022-12-26T08:13:03;10.50;99.90
25342;DHT22;13298;48.792;9.154;2022-12-26T08:15:28;10.40;99.90
25342;DHT22;13298;48.792;9.154;2022-12-26T08:17:54;10.40;99.90
25342;DHT22;13298;48.792;9.154;2022-12-26T08:20:20;10.40;99.90
25342;DHT22;13298;48.792;9.154;2022-12-26T08:22:45;10.40;99.90
25342;DHT22;13298;48.792;9.154;2022-12-26T08:25:11;10.40;99.90
25342;DHT22;13298;48.792;9.154;2022-12-26T08:27:36;10.40;99.90
25342;DHT22;13298;48.792;9.154;2022-12-26T08:30:02;10.50;99.90
25342;DHT22;13298;48.792;9.154;2022-12-26T08:32:29;10.50;99.90
25342;DHT22;13298;48.792;9.154;2022-12-26T08:34:55;10.50;99.90
25342;DHT22;13298;48.792;9.154;2022-12-26T08:37:20;10.60;99.90
25342;DHT22;13298;48.792;9.154;2022-12-26T08:39:48;10.60;99.90
25342;DHT22;13298;48.792;9.154;2022-12-26T08:42:14;10.60;99.90
25342;DHT22;13298;48.792;9.154;2022-12-26T08:44:40;10.60;99.90
25342;DHT22;13298;48.792;9.154;2022-12-26T08:47:05;10.60;99.90
25342;DHT22;13298;48.792;9.154;2022-12-26T08:49:31;10.60;99.90
25342;DHT22;13298;48.792;9.154;2022-12-26T08:51:57;10.60;99.90
25342;DHT22;13298;48.792;9.154;2022-12-26T08:54:22;10.60;99.90
25342;DHT22;13298;48.792;9.154;2022-12-26T08:56:48;10.60;99.90
25342;DHT22;13298;48.792;9.154;2022-12-26T08:59:13;10.50;99.90
25342;DHT22;13298;48.792;9.154;2022-12-26T09:01:39;10.50;99.90
25342;DHT22;13298;48.792;9.154;2022-12-26T09:04:05;10.50;99.90
25342;DHT22;13298;48.792;9.154;2022-12-26T09:06:33;10.50;99.90
25342;DHT22;13298;48.792;9.154;2022-12-26T09:09:00;10.50;99.90
25342;DHT22;13298;48.792;9.154;2022-12-26T09:11:26;10.40;99.90
25342;DHT22;13298;48.792;9.154;2022-12-26T09:13:53;10.40;99.90
25342;DHT22;13298;48.792;9.154;2022-12-26T09:16:24;10.40;99.90
25342;DHT22;13298;48.792;9.154;2022-12-26T09:18:55;10.30;99.90
25342;DHT22;13298;48.792;9.154;2022-12-26T09:21:21;10.30;99.90
25342;DHT22;13298;48.792;9.154;2022-12-26T09:23:47;10.30;99.90
25342;DHT22;13298;48.792;9.154;2022-12-26T09:26:14;10.30;99.90
25342;DHT22;13298;48.792;9.154;2022-12-26T09:28:41;10.20;99.90
25342;DHT22;13298;48.792;9.154;2022-12-26T09:31:09;10.30;99.90
25342;DHT22;13298;48.792;9.154;2022-12-26T09:33:36;10.30;99.90
25342;DHT22;13298;48.792;9.154;2022-12-26T09:36:06;10.40;99.90
25342;DHT22;13298;48.792;9.154;2022-12-26T09:38:36;10.40;99.90
25342;DHT22;13298;48.792;9.154;2022-12-26T09:46:52;10.50;99.90
25342;DHT22;13298;48.792;9.154;2022-12-26T09:49:47;10.50;99.90
25342;DHT22;13298;48.792;9.154;2022-12-26T09:52:16;10.30;99.90
25342;DHT22;13298;48.792;9.154;2022-12-26T09:54:49;10.30;99.90
25342;DHT22;13298;48.792;9.154;2022-12-26T09:57:19;10.20;99.90
25342;DHT22;13298;48.792;9.154;2022-12-26T09:59:56;10.00;99.90
25342;DHT22;13298;48.792;9.154;2022-12-26T10:02:23;9.90;99.90
25342;DHT22;13298;48.792;9.154;2022-12-26T10:04:49;9.70;99.90
25342;DHT22;13298;48.792;9.154;2022-12-26T10:07:26;9.60;99.90
25342;DHT22;13298;48.792;9.154;2022-12-26T10:26:14;9.20;99.90
25342;DHT22;13298;48.792;9.154;2022-12-26T10:28:44;9.20;99.90
25342;DHT22;13298;48.792;9.154;2022-12-26T10:31:16;9.20;99.90
25342;DHT22;13298;48.792;9.154;2022-12-26T10:33:48;9.20;99.90
25342;DHT22;13298;48.792;9.154;2022-12-26T10:36:21;9.30;99.90
25342;DHT22;13298;48.792;9.154;2022-12-26T10:39:01;9.30;99.90
25342;DHT22;13298;48.792;9.154;2022-12-26T10:41:33;9.40;99.90
25342;DHT22;13298;48.792;9.154;2022-12-26T10:44:02;9.40;99.90
25342;DHT22;13298;48.792;9.154;2022-12-26T10:49:08;9.40;99.90
25342;DHT22;13298;48.792;9.154;2022-12-26T10:51:35;9.40;99.90
25342;DHT22;13298;48.792;9.154;2022-12-26T10:54:02;9.40;99.90
25342;DHT22;13298;48.792;9.154;2022-12-26T10:56:28;9.40;99.90
25342;DHT22;13298;48.792;9.154;2022-12-26T10:58:58;9.50;99.90
25342;DHT22;13298;48.792;9.154;2022-12-26T11:01:33;9.50;99.90
25342;DHT22;13298;48.792;9.154;2022-12-26T11:04:01;9.60;99.90
25342;DHT22;13298;48.792;9.154;2022-12-26T11:06:35;9.60;99.90
25342;DHT22;13298;48.792;9.154;2022-12-26T11:09:01;9.50;99.90
25342;DHT22;13298;48.792;9.154;2022-12-26T11:11:28;9.50;99.90
25342;DHT22;13298;48.792;9.154;2022-12-26T11:17:02;9.60;99.90
25342;DHT22;13298;48.792;9.154;2022-12-26T11:19:35;9.60;99.90
25342;DHT22;13298;48.792;9.154;2022-12-26T11:22:24;9.60;99.90
25342;DHT22;13298;48.792;9.154;2022-12-26T11:27:35;9.70;99.90
25342;DHT22;13298;48.792;9.154;2022-12-26T11:32:42;9.90;99.90
25342;DHT22;13298;48.792;9.154;2022-12-26T11:35:22;10.00;99.90
25342;DHT22;13298;48.792;9.154;2022-12-26T11:37:52;10.00;99.90
25342;DHT22;13298;48.792;9.154;2022-12-26T11:40:23;10.10;99.90
25342;DHT22;13298;48.792;9.154;2022-12-26T11:42:51;10.10;99.90
25342;DHT22;13298;48.792;9.154;2022-12-26T11:45:21;10.00;99.90
25342;DHT22;13298;48.792;9.154;2022-12-26T11:47:48;10.00;99.90
25342;DHT22;13298;48.792;9.154;2022-12-26T11:50:14;9.90;99.90
25342;DHT22;13298;48.792;9.154;2022-12-26T12:01:17;9.80;99.90
25342;DHT22;13298;48.792;9.154;2022-12-26T12:03:30;9.80;99.90
25342;DHT22;13298;48.792;9.154;2022-12-26T12:06:14;9.90;99.90
25342;DHT22;13298;48.792;9.154;2022-12-26T12:08:45;9.80;99.90
25342;DHT22;13298;48.792;9.154;2022-12-26T12:17:17;10.20;99.90
25342;DHT22;13298;48.792;9.154;2022-12-26T12:19:57;10.40;99.90
25342;DHT22;13298;48.792;9.154;2022-12-26T12:27:58;10.60;99.90
25342;DHT22;13298;48.792;9.154;2022-12-26T12:38:35;10.80;99.90
25342;DHT22;13298;48.792;9.154;2022-12-26T12:44:03;10.70;99.90
25342;DHT22;13298;48.792;9.154;2022-12-26T12:52:06;10.80;99.90
25342;DHT22;13298;48.792;9.154;2022-12-26T13:00:26;10.80;99.90
25342;DHT22;13298;48.792;9.154;2022-12-26T13:05:43;10.80;99.90
25342;DHT22;13298;48.792;9.154;2022-12-26T13:08:17;10.80;99.90
25342;DHT22;13298;48.792;9.154;2022-12-26T13:10:51;10.80;99.90
25342;DHT22;13298;48.792;9.154;2022-12-26T13:13:21;10.70;99.90
25342;DHT22;13298;48.792;9.154;2022-12-26T13:15:51;10.70;99.90
25342;DHT22;13298;48.792;9.154;2022-12-26T13:18:21;10.70;99.90
25342;DHT22;13298;48.792;9.154;2022-12-26T13:21:07;10.60;99.90
25342;DHT22;13298;48.792;9.154;2022-12-26T13:23:36;10.60;99.90
25342;DHT22;13298;48.792;9.154;2022-12-26T13:26:28;10.60;99.90
25342;DHT22;13298;48.792;9.154;2022-12-26T13:28:58;10.50;99.90
25342;DHT22;13298;48.792;9.154;2022-12-26T13:31:35;10.50;99.90
25342;DHT22;13298;48.792;9.154;2022-12-26T13:34:02;10.50;99.90
25342;DHT22;13298;48.792;9.154;2022-12-26T13:36:37;10.50;99.90
25342;DHT22;13298;48.792;9.154;2022-12-26T13:41:36;10.50;99.90
25342;DHT22;13298;48.792;9.154;2022-12-26T13:49:28;10.40;99.90
25342;DHT22;13298;48.792;9.154;2022-12-26T13:51:58;10.40;99.90
25342;DHT22;13298;48.792;9.154;2022-12-26T14:11:21;10.10;99.90
25342;DHT22;13298;48.792;9.154;2022-12-26T14:16:18;10.10;99.90
25342;DHT22;13298;48.792;9.154;2022-12-26T14:18:58;10.10;99.90
25342;DHT22;13298;48.792;9.154;2022-12-26T14:24:29;10.10;99.90
25342;DHT22;13298;48.792;9.154;2022-12-26T14:27:11;10.10;99.90
25342;DHT22;13298;48.792;9.154;2022-12-26T14:33:00;10.10;99.90
25342;DHT22;13298;48.792;9.154;2022-12-26T14:44:57;9.90;99.90
25342;DHT22;13298;48.792;9.154;2022-12-26T14:55:54;9.90;99.90
25342;DHT22;13298;48.792;9.154;2022-12-26T15:00:56;9.80;99.90
25342;DHT22;13298;48.792;9.154;2022-12-26T15:03:54;9.80;99.90
25342;DHT22;13298;48.792;9.154;2022-12-26T15:20:43;9.40;99.90
25342;DHT22;13298;48.792;9.154;2022-12-26T15:26:48;9.30;99.90
25342;DHT22;13298;48.792;9.154;2022-12-26T15:32:30;9.20;99.90
25342;DHT22;13298;48.792;9.154;2022-12-26T15:35:17;9.20;99.90
25342;DHT22;13298;48.792;9.154;2022-12-26T15:46:19;9.20;99.90
25342;DHT22;13298;48.792;9.154;2022-12-26T15:51:30;9.20;99.90
25342;DHT22;13298;48.792;9.154;2022-12-26T16:02:43;9.20;99.90
25342;DHT22;13298;48.792;9.154;2022-12-26T16:11:07;9.00;99.90
25342;DHT22;13298;48.792;9.154;2022-12-26T16:13:47;9.00;99.90
25342;DHT22;13298;48.792;9.154;2022-12-26T16:16:21;8.90;99.90
25342;DHT22;13298;48.792;9.154;2022-12-26T16:18:53;8.80;99.90
25342;DHT22;13298;48.792;9.154;2022-12-26T16:21:19;8.80;99.90
25342;DHT22;13298;48.792;9.154;2022-12-26T16:24:09;8.80;99.90
25342;DHT22;13298;48.792;9.154;2022-12-26T16:26:38;8.70;99.90
25342;DHT22;13298;48.792;9.154;2022-12-26T16:29:06;8.60;99.90
25342;DHT22;13298;48.792;9.154;2022-12-26T16:31:32;8.60;99.90
25342;DHT22;13298;48.792;9.154;2022-12-26T16:33:58;8.50;99.90
25342;DHT22;13298;48.792;9.154;2022-12-26T16:36:25;8.40;99.90
25342;DHT22;13298;48.792;9.154;2022-12-26T16:38:52;8.40;99.90
25342;DHT22;13298;48.792;9.154;2022-12-26T16:41:22;8.50;99.90
25342;DHT22;13298;48.792;9.154;2022-12-26T16:43:49;8.40;99.90
25342;DHT22;13298;48.792;9.154;2022-12-26T16:46:16;8.50;99.90
25342;DHT22;13298;48.792;9.154;2022-12-26T16:48:44;8.50;99.90
25342;DHT22;13298;48.792;9.154;2022-12-26T16:51:29;8.50;99.90
25342;DHT22;13298;48.792;9.154;2022-12-26T16:53:56;8.50;99.90
25342;DHT22;13298;48.792;9.154;2022-12-26T16:56:42;8.60;99.90
25342;DHT22;13298;48.792;9.154;2022-12-26T16:59:17;8.60;99.90
25342;DHT22;13298;48.792;9.154;2022-12-26T17:01:48;8.60;99.90
25342;DHT22;13298;48.792;9.154;2022-12-26T17:04:37;8.70;99.90
25342;DHT22;13298;48.792;9.154;2022-12-26T17:07:02;8.70;99.90
25342;DHT22;13298;48.792;9.154;2022-12-26T17:09:36;8.80;99.90
25342;DHT22;13298;48.792;9.154;2022-12-26T17:12:05;8.80;99.90
25342;DHT22;13298;48.792;9.154;2022-12-26T17:14:33;8.90;99.90
25342;DHT22;13298;48.792;9.154;2022-12-26T17:17:06;8.90;99.90
25342;DHT22;13298;48.792;9.154;2022-12-26T17:19:51;8.90;99.90
25342;DHT22;13298;48.792;9.154;2022-12-26T17:22:20;8.90;99.90
25342;DHT22;13298;48.792;9.154;2022-12-26T17:24:51;8.90;99.90
25342;DHT22;13298;48.792;9.154;2022-12-26T17:27:46;9.00;99.90
25342;DHT22;13298;48.792;9.154;2022-12-26T17:30:23;9.00;99.90
25342;DHT22;13298;48.792;9.154;2022-12-26T17:32:50;9.00;99.90
25342;DHT22;13298;48.792;9.154;2022-12-26T17:35:17;9.00;99.90
25342;DHT22;13298;48.792;9.154;2022-12-26T17:37:48;9.00;99.90
25342;DHT22;13298;48.792;9.154;2022-12-26T17:45:14;9.10;99.90
25342;DHT22;13298;48.792;9.154;2022-12-26T17:47:42;9.00;99.90
25342;DHT22;13298;48.792;9.154;2022-12-26T17:50:07;9.00;99.90
25342;DHT22;13298;48.792;9.154;2022-12-26T17:52:33;9.00;99.90
25342;DHT22;13298;48.792;9.154;2022-12-26T17:54:59;9.00;99.90
25342;DHT22;13298;48.792;9.154;2022-12-26T17:57:26;9.00;99.90
25342;DHT22;13298;48.792;9.154;2022-12-26T17:59:52;8.90;99.90
25342;DHT22;13298;48.792;9.154;2022-12-26T18:02:19;8.80;99.90
25342;DHT22;13298;48.792;9.154;2022-12-26T18:04:45;8.80;99.90
25342;DHT22;13298;48.792;9.154;2022-12-26T18:07:20;8.70;99.90
25342;DHT22;13298;48.792;9.154;2022-12-26T18:09:48;8.70;99.90
25342;DHT22;13298;48.792;9.154;2022-12-26T18:12:14;8.70;99.90
25342;DHT22;13298;48.792;9.154;2022-12-26T18:14:40;8.70;99.90
25342;DHT22;13298;48.792;9.154;2022-12-26T18:17:07;8.70;99.90
25342;DHT22;13298;48.792;9.154;2022-12-26T18:19:32;8.70;99.90
25342;DHT22;13298;48.792;9.154;2022-12-26T18:21:59;8.60;99.90
25342;DHT22;13298;48.792;9.154;2022-12-26T18:24:25;8.60;99.90
25342;DHT22;13298;48.792;9.154;2022-12-26T18:26:51;8.50;99.90
25342;DHT22;13298;48.792;9.154;2022-12-26T18:29:16;8.50;99.90
25342;DHT22;13298;48.792;9.154;2022-12-26T18:31:42;8.50;99.90
25342;DHT22;13298;48.792;9.154;2022-12-26T18:34:08;8.50;99.90
25342;DHT22;13298;48.792;9.154;2022-12-26T18:36:34;8.40;99.90
25342;DHT22;13298;48.792;9.154;2022-12-26T18:39:03;8.30;99.90
25342;DHT22;13298;48.792;9.154;2022-12-26T18:41:29;8.30;99.90
25342;DHT22;13298;48.792;9.154;2022-12-26T18:43:54;8.20;99.90
25342;DHT22;13298;48.792;9.154;2022-12-26T18:46:25;8.10;99.90
25342;DHT22;13298;48.792;9.154;2022-12-26T18:48:52;8.00;99.90
25342;DHT22;13298;48.792;9.154;2022-12-26T18:51:21;7.90;99.90
25342;DHT22;13298;48.792;9.154;2022-12-26T18:53:47;7.90;99.90
25342;DHT22;13298;48.792;9.154;2022-12-26T18:56:14;7.80;99.90
25342;DHT22;13298;48.792;9.154;2022-12-26T18:58:42;7.60;99.90
25342;DHT22;13298;48.792;9.154;2022-12-26T19:01:09;7.50;99.90
25342;DHT22;13298;48.792;9.154;2022-12-26T19:03:37;7.40;99.90
25342;DHT22;13298;48.792;9.154;2022-12-26T19:06:09;7.30;99.90
25342;DHT22;13298;48.792;9.154;2022-12-26T19:08:37;7.20;99.90
25342;DHT22;13298;48.792;9.154;2022-12-26T19:11:02;7.20;99.90
25342;DHT22;13298;48.792;9.154;2022-12-26T19:13:28;7.10;99.90
25342;DHT22;13298;48.792;9.154;2022-12-26T19:15:54;7.10;99.90
25342;DHT22;13298;48.792;9.154;2022-12-26T19:18:19;7.00;99.90
25342;DHT22;13298;48.792;9.154;2022-12-26T19:20:45;7.00;99.90
25342;DHT22;13298;48.792;9.154;2022-12-26T19:23:10;7.00;99.90
25342;DHT22;13298;48.792;9.154;2022-12-26T19:25:36;7.10;99.90
25342;DHT22;13298;48.792;9.154;2022-12-26T19:28:02;7.10;99.90
25342;DHT22;13298;48.792;9.154;2022-12-26T19:30:27;7.10;99.90
25342;DHT22;13298;48.792;9.154;2022-12-26T19:32:53;7.10;99.90
25342;DHT22;13298;48.792;9.154;2022-12-26T19:35:19;7.10;99.90
25342;DHT22;13298;48.792;9.154;2022-12-26T19:37:45;7.20;99.90
25342;DHT22;13298;48.792;9.154;2022-12-26T19:40:11;7.20;99.90
25342;DHT22;13298;48.792;9.154;2022-12-26T19:42:37;7.20;99.90
25342;DHT22;13298;48.792;9.154;2022-12-26T19:45:03;7.30;99.90